André Teixeira

Olheiro-Chefe - Ceará
13 Jan 2028
Quinta-feira
Processo

Personalidade

Adaptabilidade (7) Ambição (20) Controvérsia (10) Lealdade (4) Pressão (6) Profissionalismo (18) Espírito Esportivo (18) Temperamento (6)

Perfil

Estilo de Treinamento Democrático
Licença Continental Pro
Determinação 10
Gestão de Pessoas 9
Motivação 10
Disciplina 4
Satisfação no Trabalho
100%
Fadiga
0%
Função Olheiro-Chefe
Salário 93.9K p/s
Contrato 14.03.2028

Desempenho

Comportamento Bom
Eficácia do Treinamento
40%
Desenvolvimento do Jogador
50%
Prevenção de Lesões
45%
Implementação Tática
20%

Eventos Recentes

Negociação de contrato iniciada agora
Participou de uma reunião de recrutamento agora
Recomendou um alvo de transferência agora
Recomendou um alvo de transferência agora
Recomendou um alvo de transferência agora
Recomendou um alvo de transferência agora
Recomendou um alvo de transferência agora
Participou de uma reunião de recrutamento agora

Monitorando agora

335
Jogador Clube Status Habilidade Confiança Observado Última observação Último voto
Louis Munteanu DC United Ativo 136 / 118 40% 2 03.01.2028 -
Alejo Cruz Juventud Ativo 124 / 115 40% 1 03.01.2028 -
Leandro Suhr Boston River Ativo 128 / 117 40% 1 03.01.2028 -
Luan Boa Ativo 107 / 106 65% 1 27.12.2027 Aprovar
Nicolás Fernández Mercau Independiente Ativo 134 / 134 67% 1 20.12.2027 Aprovar
Mao Hosoya Everton Negociando 134 / 135 67% 1 01.12.2027 Aprovar
Wessam Abou Ali Columbus Crew Ativo 141 / 145 40% 2 30.11.2027 -
Eric Ramírez Llaneros Ativo 112 / 106 40% 1 30.11.2027 -
Víctor Guzmán Sporting CP Ativo 108 / 116 40% 4 24.11.2027 -
Maren Kefas Plateau United Ativo 89 / 84 40% 8 24.11.2027 -
Santino Carrizo Chacarita Juniors Ativo 89 / 88 40% 1 24.11.2027 -
André Miranda Porto Ativo 112 / 108 40% 5 22.11.2027 -
Ruben Ramos LA Galaxy Ativo 107 / 96 40% 4 22.11.2027 -
Abdulateef Yusuff Chikhura Ativo 86 / 83 40% 3 22.11.2027 -
João Teixeira Porto Ativo 124 / 126 40% 2 21.11.2027 -
Mateo Silvetti Los Angeles Football Club Ativo 129 / 131 40% 3 21.11.2027 -
Santiago López Independiente Ativo 115 / 123 40% 4 20.11.2027 -
Luis Vidal Deportivo Pereira Ativo 89 / 84 40% 2 20.11.2027 -
Bruno Ribeiro Cortulua Ativo 78 / 97 40% 2 20.11.2027 -
Mikkel Hope Haugesund Ativo 113 / 112 40% 3 19.11.2027 -
Rio Ngumoha Stockport County Ativo 149 / 160 40% 1 19.11.2027 Mais informações
Alex Amaefula Kun Khalifat Ativo 80 / 95 40% 3 18.11.2027 -
Mads Bomholt Stabaek Ativo 100 / 108 40% 2 18.11.2027 -
Dylan Cabral Arsenal Ativo 98 / 97 40% 5 15.11.2027 -
Mateo Peralta Danubio Ativo 120 / 127 40% 4 14.11.2027 -
Mustapha Umar Kano Pillars Ativo 94 / 97 40% 4 14.11.2027 -
Sunday Aniebet Enyimba Ativo 99 / 97 40% 2 14.11.2027 -
Musa Malik Ikorodu City Ativo 82 / 89 40% 2 13.11.2027 -
Lucas Camejo River Plate Ativo 87 / 89 40% 2 13.11.2027 -
Lion Beqiri Falkenberg Ativo 86 / 118 40% 2 13.11.2027 -
Alfie James Ventforet Kofu Ativo 90 / 87 40% 2 12.11.2027 -
Federico Coletta Benfica Ativo 96 / 108 40% 1 12.11.2027 -
Brandon Álvarez Penarol Ativo 86 / 101 40% 1 12.11.2027 -
Gonçalo Moreira Benfica Ativo 133 / 131 40% 6 10.11.2027 -
Duarte Cunha Porto Ativo 89 / 98 40% 1 10.11.2027 -
Hassan Beja AFC Leopards Ativo 85 / 103 40% 4 09.11.2027 -
Joel Ezra Enyimba Ativo 104 / 93 40% 5 09.11.2027 -
Kauã Moraes Cruzeiro Ativo 133 / 138 40% 2 09.11.2027 -
Sebastian Olderheim Stabaek Ativo 94 / 107 40% 1 06.11.2027 -
Mfundo Vilakazi Kaizer Chiefs Ativo 127 / 119 40% 1 06.11.2027 -
Daniel Banjaqui Benfica Ativo 111 / 134 40% 3 05.11.2027 -
Olívio Tomé Benfica Ativo 118 / 118 40% 1 05.11.2027 -
Oscar Otero Atletico Venezuela Ativo 104 / 113 40% 3 02.11.2027 -
Onuorah Onyedika Kun Khalifat Ativo 84 / 97 40% 2 02.11.2027 -
Franco Minerva Platense Ativo 119 / 116 40% 2 02.11.2027 -
Fredrik Ardraa Stromsgodset Ativo 112 / 115 40% 1 01.11.2027 -
Bernardo Lima Porto Ativo 94 / 120 40% 2 31.10.2027 -
Bop Guèye Haugesund Ativo 118 / 122 40% 3 30.10.2027 -
Nicolas Sport Recife Ativo 108 / 106 40% 1 30.10.2027 -
Luis Otávio Colorado Rapids Ativo 105 / 108 40% 3 29.10.2027 -
Mateus Mide Porto Ativo 97 / 109 40% 2 29.10.2027 -
Juan Camilo Córdoba Deportivo Pereira Ativo 89 / 96 40% 1 29.10.2027 -
Samuel Posada Leones Ativo 94 / 83 40% 1 28.10.2027 -
Olaniyi Saheed Kwara United Ativo 96 / 104 40% 1 28.10.2027 -
André Lucas Sampaio Correa Ativo 100 / 91 40% 1 28.10.2027 -
Hervin Goyes Deportivo Pasto Ativo 107 / 106 40% 4 26.10.2027 -
Gift Udoh Ikorodu City Ativo 88 / 85 40% 1 26.10.2027 -
Tobias Moi Bodo/Glimt Ativo 94 / 129 40% 1 26.10.2027 -
Bahia Criciuma Ativo 105 / 120 40% 3 25.10.2027 -
Daniel Costa Sporting CP Ativo 106 / 102 40% 1 25.10.2027 -
Giovanni Leoni Bradford City Ativo 146 / 146 40% 1 25.10.2027 -
Tiziano Cabrera Central Norte Ativo 96 / 97 40% 2 23.10.2027 -
Matías Canedo Rampla Juniors Ativo 78 / 96 40% 2 19.10.2027 -
Ethan Williams Peterborough United Ativo 107 / 121 40% 2 18.10.2027 -
Archie Gray Derby County Ativo 143 / 156 40% 1 18.10.2027 -
Ronan Kpakio Cardiff City Ativo 133 / 134 40% 1 18.10.2027 -
Tiago Gordillo San Miguel Ativo 89 / 91 40% 1 17.10.2027 -
João Fonseca Benfica Ativo 111 / 120 40% 1 17.10.2027 -
Diogo Guzmán Montevideo City Torque Ativo 123 / 107 40% 2 15.10.2027 -
Gabriel Mec Porto Ativo 129 / 127 40% 1 15.10.2027 -
Juan Morán Godoy Cruz Ativo 111 / 105 40% 1 15.10.2027 -
Hosea Michael Remo Stars Ativo 78 / 81 40% 1 15.10.2027 -
Giovanni Baroni Talleres Ativo 113 / 122 40% 3 13.10.2027 -
Joel Romero America de Cali Ativo 110 / 112 40% 1 13.10.2027 -
Chinedu Nwosu Bendel Insurance Ativo 77 / 110 40% 1 08.10.2027 -
Wisdom Udom Bendel Insurance Ativo 79 / 77 40% 1 07.10.2027 -
Mikhail Alexandrov Dinamo Brest Ativo 83 / 75 40% 1 04.10.2027 -
Gustavo Lozano Metropolitanos Ativo 98 / 107 40% 1 29.09.2027 -
Sadiq Auwal Niger Tornadoes Ativo 78 / 94 40% 2 24.09.2027 -
Noah Streit CF Montreal Ativo 109 / 111 40% 3 14.09.2027 -
Juan Rodríguez Wanderers Ativo 99 / 113 40% 2 14.09.2027 -
Figueiredo Sampaio Correa Ativo 92 / 87 40% 1 14.09.2027 -
Mauro Carrizo Atlético Tucumán Ativo 95 / 116 40% 1 14.09.2027 -
Adriangel Torrealba Llaneros Ativo 71 / 87 40% 1 10.09.2027 -
Chimobi Igwilo Rangers International Ativo 80 / 87 40% 1 03.09.2027 -
Tobi Ige Bendel Insurance Ativo 94 / 90 40% 1 02.09.2027 -
Luke Baartman ES Mostaganem Ativo 105 / 126 40% 2 29.08.2027 -
Manuel Kissanga Fortuna Mfou Ativo 84 / 115 40% 1 27.08.2027 -
Lucas Duré Montevideo City Torque Ativo 101 / 102 40% 1 26.08.2027 -
Ian Wisdom Sporting Cristal Ativo 88 / 108 40% 1 26.08.2027 -
Ibrahim Sabiu Bendel Insurance Ativo 90 / 78 40% 1 25.08.2027 -
Peter Amidu Acquah Asante Kotoko Ativo 113 / 91 40% 2 22.08.2027 -
Fataho Nerie Berekum Chelsea Ativo 66 / 78 40% 1 20.08.2027 -
Matías Gómez Granada Ativo 126 / 142 40% 2 16.08.2027 -
Nhlanhla Gasa Binga Ativo 79 / 100 40% 1 16.08.2027 -
Daniel Awuni Aduana Stars Ativo 106 / 87 40% 1 14.08.2027 -
Sascha Britschgi Padova Ativo 120 / 134 40% 2 13.08.2027 -
Lander Astiazarán Real Sociedad Ativo 97 / 132 40% 1 13.08.2027 -
Mattia Rutigliano Pro Vercelli Ativo 97 / 103 40% 1 10.08.2027 -
Kamarni Ryan Burton Albion Ativo 92 / 100 40% 1 08.08.2027 -
João Abreu Porto Ativo 105 / 110 40% 2 05.08.2027 -
Rafael Camacho Sporting CP Ativo 107 / 96 40% 1 04.08.2027 -
Leo Castledine Middlesbrough Ativo 134 / 150 40% 4 03.08.2027 -
Zaïd BafdilI Sporting CP Ativo 94 / 95 40% 2 03.08.2027 -
Vasco Santos Oliveirense Ativo 82 / 87 40% 1 19.07.2027 -
Hazeem Bakre Crawley Town Ativo 93 / 80 40% 1 19.07.2027 -
Yuri Alberto Köln Ativo 140 / 141 67% 1 01.06.2027 Aprovar
Kaio Jorge Bayern Munich Ativo 138 / 140 68% 1 01.06.2027 Aprovar
Kyle Wootton Stockport County Ativo 132 / 113 40% 1 31.05.2027 -
Lorent Tolaj Plymouth Argyle Ativo 130 / 116 40% 1 31.05.2027 -
Iwan Morgan Grimsby Town Ativo 98 / 130 40% 3 30.05.2027 -
Cameron Archer Southampton Ativo 117 / 136 40% 1 30.05.2027 -
Santiago Pierotti Lecce Ativo 125 / 135 40% 1 30.05.2027 -
Marezi Portsmouth Ativo 121 / 133 40% 1 27.05.2027 -
Dávid Strelec Middlesbrough Ativo 149 / 127 40% 2 26.05.2027 -
Lewis Morgan SuperSport United Ativo 116 / 121 40% 2 26.05.2027 -
Jack Diamond Stockport County Ativo 127 / 126 40% 1 25.05.2027 -
Tommy Conway Middlesbrough Ativo 124 / 141 40% 1 25.05.2027 -
Will Lankshear Middlesbrough Ativo 130 / 112 40% 2 24.05.2027 -
Armando Broja Burnley Ativo 149 / 148 40% 1 23.05.2027 -
Ross Stewart Southampton Ativo 139 / 115 40% 2 21.05.2027 -
Luis Vázquez Birmingham Ativo 133 / 126 40% 2 20.05.2027 -
Morgan Whittaker Middlesbrough Ativo 142 / 132 40% 2 19.05.2027 -
Dom Ballard Leyton Orient Ativo 133 / 126 40% 4 18.05.2027 -
Mohamed-Ali Cho Hull City Ativo 146 / 148 40% 2 16.05.2027 -
Aaron Collins Milton Keynes Dons Ativo 107 / 102 40% 1 15.05.2027 -
Zeki Amdouni Burnley Ativo 147 / 120 40% 1 13.05.2027 -
Gabriel Melo Dugopolje Ativo 90 / 95 40% 3 12.05.2027 -
Derry Murkin Derby County Ativo 131 / 118 40% 2 12.05.2027 -
Patson Daka Leicester City Ativo 126 / 122 40% 1 12.05.2027 -
Ilyas Ansah Hull City Ativo 120 / 119 40% 1 12.05.2027 -
Bali Mumba Huddersfield Town Ativo 113 / 131 40% 1 08.05.2027 -
Finn Azaz Southampton Ativo 121 / 119 40% 2 07.05.2027 -
Christos Mouzakitis Hull City Ativo 121 / 130 40% 1 07.05.2027 -
Tom Cannon Sheffield United Ativo 137 / 138 40% 1 04.05.2027 -
Davide Bartesaghi AC Milan Ativo 139 / 141 40% 1 01.05.2027 -
Tyrese Campbell Sheffield United Ativo 116 / 131 40% 1 29.04.2027 -
Ali Ahmed Norwich City Ativo 114 / 126 40% 1 29.04.2027 -
Kwadwo Baah Watford Ativo 133 / 119 40% 1 28.04.2027 -
Jack Rudoni Coventry City Ativo 149 / 133 40% 2 27.04.2027 -
Richard Koné Queens Park Rangers Ativo 117 / 139 40% 1 27.04.2027 -
Baba N'Diaye Chelyabinsk Ativo 71 / 80 40% 1 27.04.2027 -
Adama Goïta Remo Stars Ativo 88 / 87 40% 1 27.04.2027 -
Vinícius Lopes Santa Clara Ativo 117 / 125 40% 6 25.04.2027 -
Jalen Blesa Rio Ave Ativo 113 / 116 40% 4 25.04.2027 -
Monty Batlhabane Polokwane City Ativo 93 / 101 40% 1 25.04.2027 -
Sidiki Chérif Coventry City Ativo 122 / 132 40% 1 24.04.2027 -
Santi García Gil Vicente Ativo 142 / 139 40% 4 21.04.2027 -
Lorenzo De Leo Renate Ativo 89 / 118 40% 2 21.04.2027 -
Gianluca Prestianni Benfica Ativo 143 / 123 40% 2 21.04.2027 -
Stanley Mills Oxford United Ativo 120 / 124 40% 1 19.04.2027 -
Mario Dorgeles Braga Ativo 129 / 151 40% 1 19.04.2027 -
Gustavo Silva Vitoria Guimaraes Ativo 127 / 123 40% 3 17.04.2027 -
Toni Tamarit Alverca Ativo 104 / 126 40% 2 15.04.2027 -
Welington Southampton Ativo 137 / 128 40% 3 15.04.2027 -
Chineme Chinonso Ikorodu City Ativo 104 / 81 40% 1 14.04.2027 -
Thomas Waddingham Portsmouth Ativo 105 / 101 40% 1 14.04.2027 -
Martim Cunha Porto Ativo 99 / 102 40% 1 10.04.2027 -
Bernardes Benfica Ativo 97 / 88 40% 1 10.04.2027 -
Gabri Martínez Braga Ativo 136 / 117 40% 2 08.04.2027 -
Jason Knight Bristol City Ativo 142 / 133 40% 1 08.04.2027 -
Paulo Moreira Farense Ativo 123 / 112 40% 2 07.04.2027 -
Víctor Gómez Braga Ativo 136 / 122 40% 4 07.04.2027 -
Amaury Morales Pumas UNAM Ativo 121 / 101 40% 1 07.04.2027 -
Francisco Moura Lusitânia Lourosa Ativo 133 / 134 40% 3 05.04.2027 -
Miloš Jovičić Zabbar St. Patrick Ativo 105 / 81 40% 1 03.04.2027 -
Kelian Baruti Liamba Estoril Praia Ativo 94 / 112 40% 1 03.04.2027 -
Juan María Alcedo Torreense Ativo 115 / 127 40% 1 03.04.2027 -
Daniel Júnior Nacional Ativo 125 / 128 40% 1 02.04.2027 -
Luis Quintero Torreense Ativo 122 / 118 40% 1 28.03.2027 -
Nabil Touaizi Alverca Ativo 117 / 118 40% 3 27.03.2027 -
Caleb Yirenkyi Coventry City Ativo 148 / 127 40% 1 27.03.2027 -
Lorougnon Gohi Académico de Viseu Ativo 103 / 102 40% 6 25.03.2027 -
Manu Pozo Torreense Ativo 108 / 121 40% 2 24.03.2027 -
Max Bird Birmingham Ativo 133 / 148 40% 1 24.03.2027 -
Nicolás Castro Toluca Ativo 137 / 119 40% 2 23.03.2027 -
João Mendes Vitoria Guimaraes Ativo 134 / 126 40% 1 23.03.2027 -
Tshepang Moremi Orlando Pirates Ativo 102 / 129 40% 1 22.03.2027 -
Ezequiel Bullaude Santos Laguna Ativo 138 / 108 40% 1 20.03.2027 -
Figueiredo Alverca Ativo 119 / 116 40% 6 19.03.2027 -
Mandla Erasmus SuperSport United Ativo 110 / 108 40% 2 18.03.2027 -
Ricard Sánchez Estoril Praia Ativo 114 / 107 40% 3 17.03.2027 -
Daniel Kyerewaa Reading Ativo 119 / 121 40% 1 15.03.2027 -
Simo Maritimo Ativo 117 / 125 40% 1 15.03.2027 -
Dinis Pinto Moreirense Ativo 142 / 115 40% 1 13.03.2027 -
Lohann Doucet Vitoria Guimaraes Ativo 117 / 128 40% 1 13.03.2027 -
Rocco Vata Watford Ativo 110 / 119 40% 3 11.03.2027 -
Lee Hyun-Ju Arouca Ativo 127 / 130 40% 2 10.03.2027 -
Iker Benito Queretaro Ativo 135 / 108 40% 2 09.03.2027 -
Ole Pohlmann Rio Ave Ativo 119 / 133 40% 4 07.03.2027 -
Martín Tejón Maritimo Ativo 113 / 110 40% 1 07.03.2027 -
Julián Vignolo Toulouse FC Ativo 119 / 126 40% 1 06.03.2027 -
Brenner Santa Clara Ativo 115 / 122 40% 1 04.03.2027 -
Emi Rodriguez Leon Ativo 125 / 107 40% 2 28.02.2027 -
Markus Jensen Nacional Ativo 100 / 117 40% 3 27.02.2027 -
Facundo Cáseres Gil Vicente Ativo 127 / 127 40% 1 27.02.2027 -
Alfonso Trezza Arouca Ativo 116 / 119 40% 3 25.02.2027 -
Jovan Milošević Braga Ativo 132 / 133 40% 2 25.02.2027 -
Miguel Baeza Nacional Ativo 125 / 115 40% 1 25.02.2027 -
Dilan Neves Benfica Ativo 70 / 95 40% 1 22.02.2027 -
Lwanda Mbanjwa Maritzburg United Ativo 81 / 112 40% 1 22.02.2027 -
Tony Strata Vitoria Guimaraes Ativo 112 / 129 40% 1 19.02.2027 -
Florentino Luís Ipswich Town Ativo 146 / 128 40% 1 17.02.2027 -
Mathis Jangeal Famalicao Ativo 83 / 94 40% 2 15.02.2027 -
Cristian Ferreira Académico de Viseu Ativo 107 / 110 40% 1 15.02.2027 -
Naïs Djouahra Arouca Ativo 129 / 128 40% 3 09.02.2027 -
Makan Aïko Tondela Ativo 109 / 102 40% 1 08.02.2027 -
Ognjen Bondžulić Mladost Lucani Ativo 88 / 99 40% 1 07.02.2027 -
Mateus Mané Manchester United Ativo 144 / 122 40% 1 07.02.2027 Mais informações
Kélian Nsona Casa Pia Ativo 115 / 103 40% 1 06.02.2027 -
Rodrigo Ramos Moreirense Ativo 109 / 115 40% 2 04.02.2027 -
Matvii Ponomarenko Dynamo Kyiv Ativo 125 / 108 40% 1 04.02.2027 -
Ozziel Herrera Tigres Ativo 127 / 112 40% 1 01.02.2027 -
Darlvin Yeboah Bechem United Ativo 70 / 86 40% 1 31.01.2027 -
Jordan Holsgrove Estoril Praia Ativo 127 / 114 40% 1 30.01.2027 -
Marcelo Allende Mamelodi Sundowns Ativo 148 / 141 40% 2 28.01.2027 -
Cian Ashford Cardiff City Ativo 116 / 128 40% 2 28.01.2027 -
Henry Mosquera Bragantino Ativo 127 / 139 40% 2 26.01.2027 -
Weverson Gil Vicente Ativo 116 / 114 40% 1 25.01.2027 -
Kwame Poku Queens Park Rangers Ativo 112 / 131 40% 1 24.01.2027 -
Rafik Guitane Estoril Praia Ativo 137 / 138 40% 2 21.01.2027 -
Rodrigo Pinheiro Famalicao Ativo 127 / 141 40% 1 21.01.2027 -
Deivid Washington RC Strasbourg Ativo 100 / 106 40% 1 16.01.2027 -
Roberto Fernández Braga Ativo 141 / 153 40% 2 13.01.2027 -
Umar Abubakar Famalicao Ativo 85 / 77 40% 1 13.01.2027 -
Williams Yikat Aigle Royal de Moungo Ativo 77 / 83 40% 1 12.01.2027 -
José Hurtado Bragantino Ativo 139 / 115 40% 1 10.01.2027 -
Tidjany Touré Gil Vicente Ativo 126 / 131 40% 1 10.01.2027 -
Ben Ahmed Kohili Paradou Ativo 96 / 98 40% 1 10.01.2027 -
Vivaldo Semedo Watford Ativo 119 / 140 40% 1 09.01.2027 -
Reda Khadra Qarabag Ativo 128 / 136 40% 1 07.01.2027 -
Nuno Moreira Vasco da Gama Ativo 137 / 121 40% 1 06.01.2027 -
Marquinhos Spartak Moscow Ativo 128 / 122 40% 1 05.01.2027 -
Valery Académico de Viseu Ativo 121 / 129 40% 1 21.12.2026 -
André Silva Tondela Ativo 136 / 117 40% 2 29.11.2026 -
Fabijan Buntić Farense Ativo 120 / 106 40% 1 28.11.2026 -
Michael Cooper Sheffield United Ativo 120 / 113 40% 1 28.11.2026 -
Pol Tristán Barnsley Ativo 122 / 97 40% 1 27.11.2026 -
Alfonso Pastor Maritimo Ativo 91 / 108 40% 3 24.11.2026 -
Patrick Sequeira Casa Pia Ativo 133 / 109 40% 4 23.11.2026 -
Héctor Hernández Gil Vicente Ativo 129 / 118 40% 2 23.11.2026 -
Vladan Kovačević Norwich City Ativo 100 / 129 40% 1 23.11.2026 -
Claudio Spinelli Vasco da Gama Ativo 132 / 136 40% 1 23.11.2026 -
Carlos Vinícius Grêmio Ativo 141 / 140 40% 1 22.11.2026 -
Caoimhin Kelleher Brentford Ativo 158 / 140 40% 4 19.11.2026 -
Vitor Eudes Fluminense Ativo 108 / 126 40% 3 19.11.2026 -
Facundo Cambeses Racing Club Ativo 130 / 127 40% 2 18.11.2026 -
Robin Roefs Sunderland Ativo 140 / 134 40% 2 18.11.2026 -
Matěj Kovář PSV Ativo 134 / 130 40% 1 17.11.2026 -
Christian Joel Sánchez Leiria Ativo 97 / 112 40% 5 16.11.2026 -
Gabriel Batista Botafogo Ativo 120 / 127 40% 3 16.11.2026 -
Francisco Meixedo Feirense Ativo 111 / 123 40% 3 14.11.2026 -
João Valido Chaves Ativo 98 / 121 40% 1 14.11.2026 -
Tamble Monteiro Rio Ave Ativo 125 / 136 40% 2 13.11.2026 -
Jonathan Fischer FC Metz Ativo 133 / 132 40% 1 13.11.2026 -
Dean Henderson Crystal Palace Ativo 146 / 146 40% 1 13.11.2026 -
Lucas Cañizares Tondela Ativo 94 / 99 40% 1 12.11.2026 -
Víctor Cabezas Union Magdalena Ativo 114 / 105 40% 2 10.11.2026 -
Negueba Mirassol Ativo 120 / 120 40% 1 10.11.2026 -
Bernardo Fontes Braga Ativo 132 / 118 40% 3 08.11.2026 -
Cezary Miszta Rio Ave Ativo 112 / 135 40% 6 07.11.2026 -
Hugo Souza Corinthians Ativo 148 / 144 40% 3 07.11.2026 -
Geny Sporting CP Ativo 159 / 129 40% 1 07.11.2026 -
Facundo Colidio Vasco da Gama Ativo 128 / 124 40% 1 05.11.2026 -
Alejandro Melo Cibalia Ativo 112 / 97 40% 1 03.11.2026 -
Adriel Torreense Ativo 131 / 131 40% 4 01.11.2026 -
Lautaro Petruchi Gimnasia y Esgrima Ativo 118 / 108 40% 1 01.11.2026 -
Nicolás Sumavil Platense Ativo 114 / 125 40% 1 31.10.2026 -
Beau Reus Waasland-Beveren Ativo 119 / 140 40% 3 30.10.2026 -
Manuel Baldé Asante Kotoko Ativo 112 / 93 40% 1 29.10.2026 -
Esteban Glellel Quilmes Ativo 109 / 121 40% 2 28.10.2026 -
Drake Callender Minnesota United FC Ativo 137 / 128 40% 1 27.10.2026 -
Grégoire Coudert Burnley Ativo 131 / 135 40% 1 27.10.2026 -
Thomas De Bruyne Mouscron Ativo 140 / 111 40% 1 26.10.2026 -
Vitor Hugo Lusitânia Lourosa Ativo 104 / 115 40% 2 25.10.2026 -
Antonio Gomis Vizela Ativo 110 / 120 40% 2 24.10.2026 -
Erick Reyes Toluca Ativo 140 / 143 40% 2 23.10.2026 -
Matheus Mendes Alverca Ativo 135 / 108 40% 5 23.10.2026 -
Hugo Cuypers Monterrey Ativo 117 / 111 40% 1 22.10.2026 -
Nicolás Cordero Aldosivi Ativo 115 / 116 40% 1 22.10.2026 -
Thiago Couto São Paulo Ativo 107 / 105 40% 1 22.10.2026 -
Carlos Moreno Pachuca Ativo 119 / 122 40% 1 20.10.2026 -
Juan Muñoz Leiria Ativo 124 / 122 40% 1 17.10.2026 -
Eric Ramires Bragantino Ativo 130 / 138 40% 1 17.10.2026 -
Zé Leite Leixões Ativo 101 / 108 40% 1 17.10.2026 -
Emiliano González Almagro Ativo 121 / 105 40% 3 14.10.2026 -
Jacob Widell Zetterström Derby County Ativo 131 / 142 40% 1 13.10.2026 -
Ramiro Ruiz Rodríguez Atlético Tucumán Ativo 127 / 117 40% 1 13.10.2026 -
André Clovis Leiria Ativo 103 / 101 40% 1 11.10.2026 -
Juan Soriano Académico de Viseu Ativo 131 / 141 40% 1 11.10.2026 -
Arthur Cabral Botafogo Ativo 123 / 128 40% 1 09.10.2026 -
Ignacio de Arruabarrena Arouca Ativo 113 / 126 40% 2 07.10.2026 -
Lazar Carević Famalicao Ativo 141 / 114 40% 2 06.10.2026 -
Mateo Cassierra Atlético Mineiro Ativo 124 / 120 40% 1 06.10.2026 -
Daniel Iversen Preston Ativo 138 / 128 40% 1 04.10.2026 -
Sead Hakšabanović Malmo FF Ativo 113 / 106 40% 1 04.10.2026 -
Kévin Denkey FC Cincinnati Ativo 116 / 131 40% 1 03.10.2026 -
Will Mannion Charlton Athletic Ativo 106 / 94 40% 2 01.10.2026 -
Felipe Parra Envigado Ativo 132 / 126 40% 1 30.09.2026 -
Francisco Salerno Defensores Unidos Ativo 107 / 102 40% 1 29.09.2026 -
Sébastien Cibois Portimonense Ativo 103 / 110 40% 2 27.09.2026 -
Rodrigo Castillo Fluminense Ativo 116 / 118 40% 1 26.09.2026 -
Luis Ingolotti Atlético Tucumán Ativo 131 / 132 40% 1 23.09.2026 -
Luka Gavran Toronto FC Ativo 105 / 124 40% 1 19.09.2026 -
August Priske Birmingham Ativo 114 / 134 40% 1 18.09.2026 -
João Gonçalves Felgueiras Ativo 105 / 96 40% 2 17.09.2026 -
Matt Freese New York City Ativo 128 / 116 40% 1 14.09.2026 -
Andrés Gudiño Cruz Azul Ativo 127 / 116 40% 1 13.09.2026 -
Gabriel Jesus Barcelona Ativo 160 / 160 40% 2 12.09.2026 -
Patrick Schulte Columbus Crew Ativo 124 / 134 40% 1 12.09.2026 -
Dejan Joveljić Seattle Sounders Ativo 116 / 116 40% 1 10.09.2026 -
Alexander Nübel Besiktas Ativo 141 / 137 40% 1 08.09.2026 -
Jhojan Julio Queretaro Ativo 106 / 129 40% 1 07.09.2026 -
Max O'Leary West Bromwich Albion Ativo 119 / 135 40% 1 07.09.2026 -
James Trafford Leeds United Ativo 131 / 132 40% 2 30.08.2026 -
Antony Alonso Deportivo Riestra Ativo 111 / 117 40% 1 30.08.2026 -
Andrew Flamengo Ativo 117 / 134 40% 1 25.08.2026 -
Tomoki Hayakawa Kashima Antlers Ativo 142 / 130 40% 1 24.08.2026 -
Nicolas Schmid Portsmouth Ativo 102 / 125 40% 1 24.08.2026 -
Henrique Araújo Casa Pia Ativo 137 / 111 40% 1 24.08.2026 -
Breel Embolo Atlanta United FC Ativo 141 / 141 40% 1 20.08.2026 -
Romelu Castagne KV Oostende Ativo 144 / 124 40% 1 17.08.2026 -
Dayne St. Clair Inter Miami CF Ativo 118 / 132 40% 1 17.08.2026 -
Radek Vítek Middlesbrough Ativo 110 / 120 40% 1 16.08.2026 -
Jakob Tånnander Farense Ativo 98 / 111 40% 1 15.08.2026 -
Dudu Estrela da Amadora Ativo 104 / 123 40% 1 13.08.2026 -
Matvey Safonov Paris Saint-Germain Ativo 131 / 165 40% 1 11.08.2026 -
Thauan Lara Portimonense Ativo 119 / 99 40% 1 08.08.2026 -
Gonçalo Inácio Sporting CP Ativo 159 / 158 40% 1 08.08.2026 -
Bright Arrey-Mbi Braga Ativo 144 / 117 40% 1 05.08.2026 -
Miguel Nóbrega Vitoria Guimaraes Ativo 128 / 129 40% 1 05.08.2026 -
Fernando Tapia Club America Ativo 142 / 110 40% 1 04.08.2026 -
Alejandro Balde Barcelona Ativo 171 / 144 40% 1 02.08.2026 -
Georginio Rutter Brighton Ativo 137 / 157 40% 1 01.08.2026 -
Troy Parrott Betis Ativo 121 / 144 40% 1 01.08.2026 -